F/v_l'omerta — FHXG — position and weather

sailwx.info

Track history (hours):
 
Tides and Currents Weather Stations Pressure Air Temp Water Temp Dewpoint Dewpoint Depression Visibility Wind Speed Wind Dir Waves Ship Positions

F/v_l'omerta

Last reported at 2016-Aug-25 12:33 UTC. Time now 2016-Aug-25 13:13 UTC.
Position N 46°17' W 002°21'.

Length 18 m.

Type: Fishing. MMSI: 227903000.

Date/timePositionNaut miles runAvg speedWind from/ knotsBaromVisibWave heightAir tempDewpointWater temp
2016-Aug-25 12:33N 46°17' W 002°21'3 3.3
2016-Aug-25 11:33N 46°18' W 002°16'3 2.1
2016-Aug-25 10:14N 46°15' W 002°13'2 1.1
2016-Aug-25 08:33N 46°17' W 002°15'2 1.5
2016-Aug-25 07:22N 46°15' W 002°15'2 2.6
2016-Aug-25 06:32N 46°17' W 002°14'4 1.8
2016-Aug-25 04:33N 46°15' W 002°19'3 2.7
2016-Aug-25 03:29N 46°18' W 002°21'7 7.3
2016-Aug-25 02:28N 46°21' W 002°11'8 9.0
2016-Aug-25 01:33N 46°24' W 002°00'9 9.0
2016-Aug-25 00:33N 46°28' W 001°48'2 0.1
2016-Aug-24 09:33N 46°30' W 001°47'0 0.0
2016-Aug-24 08:33N 46°30' W 001°47'0 0.0
2016-Aug-24 07:33N 46°30' W 001°47'0 0.0
2016-Aug-24 06:33N 46°30' W 001°47'0 0.0
2016-Aug-23 16:21N 46°30' W 001°47'0 0.1
2016-Aug-23 15:34N 46°30' W 001°47'1 1.2
2016-Aug-23 14:34N 46°29' W 001°47'2 2.0
2016-Aug-23 13:33N 46°28' W 001°50'4 4.2
2016-Aug-23 12:34N 46°26' W 001°55'5 4.8
2016-Aug-23 11:34N 46°24' W 002°01'6 6.1
2016-Aug-23 10:34N 46°20' W 002°08'7 7.3
2016-Aug-23 09:34N 46°17' W 002°18'2 1.9
2016-Aug-23 08:33N 46°16' W 002°16'2 1.7
2016-Aug-23 07:34N 46°15' W 002°18'6 1.4
2016-Aug-23 03:06N 46°14' W 002°10'2 3.0
2016-Aug-23 02:33N 46°15' W 002°08'2 2.2
2016-Aug-23 01:34N 46°17' W 002°06'3 3.1
2016-Aug-23 00:34N 46°18' W 002°02'4 3.5
2016-Aug-22 23:33N 46°20' W 001°57'3 2.8
2016-Aug-22 22:33N 46°18' W 001°54'2 2.3
2016-Aug-22 21:33N 46°16' W 001°52'3 3.1
2016-Aug-22 20:33N 46°19' W 001°55'3 2.6
2016-Aug-22 19:34N 46°19' W 001°58'4 3.5
2016-Aug-22 18:22N 46°18' W 002°04'4 3.3
2016-Aug-22 17:08N 46°16' W 002°09'2 3.4
2016-Aug-22 16:34N 46°15' W 002°12'3 2.0
2016-Aug-22 15:07N 46°16' W 002°16'2 1.1
2016-Aug-22 13:28N 46°14' W 002°14'2 2.1
2016-Aug-22 12:33N 46°16' W 002°16'2 1.8
2016-Aug-22 11:31N 46°16' W 002°13'4 1.9
2016-Aug-22 09:34N 46°15' W 002°19'1 0.6
2016-Aug-22 07:30N 46°14' W 002°17'4 3.6
2016-Aug-22 06:32N 46°17' W 002°21'7 7.6
2016-Aug-22 05:34N 46°21' W 002°11'9 8.9
2016-Aug-22 04:34N 46°24' W 001°60'9 8.7
2016-Aug-22 03:34N 46°28' W 001°48'2 0.0
2016-Aug-20 13:27N 46°30' W 001°47'0 0.0
2016-Aug-20 12:34N 46°30' W 001°47'0 0.0
2016-Aug-20 11:34N 46°30' W 001°47'0 0.0
2016-Aug-19 10:33N 46°30' W 001°47'0 0.0
2016-Aug-19 09:33N 46°30' W 001°47'0 0.0
2016-Aug-19 08:33N 46°30' W 001°47'0 0.1
2016-Aug-19 07:33N 46°30' W 001°47'0 0.1
2016-Aug-19 06:33N 46°30' W 001°47'0 0.0
2016-Aug-18 20:03N 46°30' W 001°47'0 0.0
2016-Aug-18 19:33N 46°30' W 001°47'1 0.8
2016-Aug-18 18:33N 46°29' W 001°47'6 5.6
2016-Aug-18 17:33N 46°26' W 001°54'2 2.1
2016-Aug-18 16:33N 46°23' W 001°54'3 2.8
2016-Aug-18 15:32N 46°21' W 001°54'4 3.7
2016-Aug-18 14:20N 46°19' W 002°00'19 1.3
2016-Aug-17 23:31N 46°33' W 002°19'17 2.0
2016-Aug-17 15:25N 46°40' W 002°41'3 3.4
2016-Aug-17 14:30N 46°39' W 002°46'3 0.5
2016-Aug-17 08:16N 46°43' W 002°46'3 3.4
2016-Aug-17 07:32N 46°44' W 002°43'2 2.3
2016-Aug-17 06:33N 46°42' W 002°41'2 1.1
2016-Aug-17 04:30N 46°44' W 002°43'2 2.5
2016-Aug-17 03:33N 46°42' W 002°41'3 2.9
2016-Aug-17 02:33N 46°43' W 002°45'2 2.2
2016-Aug-17 01:33N 46°44' W 002°43'3 2.8
2016-Aug-17 00:33N 46°42' W 002°41'1 1.3
2016-Aug-16 23:31N 46°41' W 002°43'3 3.0
2016-Aug-16 22:33N 46°44' W 002°43'3 2.7
2016-Aug-16 21:33N 46°42' W 002°41'3 3.2
2016-Aug-16 20:32N 46°39' W 002°39'3 3.0
2016-Aug-16 19:33N 46°41' W 002°42'3 3.1
2016-Aug-16 18:32N 46°44' W 002°41'4 3.1
2016-Aug-16 17:23N 46°43' W 002°46'3 0.4
2016-Aug-16 09:06N 46°40' W 002°49'1 2.6
2016-Aug-16 08:33N 46°40' W 002°51'2 2.2
2016-Aug-16 07:33N 46°42' W 002°52'20 4.8
2016-Aug-16 03:28N 46°38' W 002°24'8 9.0
2016-Aug-16 02:33N 46°35' W 002°13'9 9.2
2016-Aug-16 01:34N 46°32' W 002°01'9 9.2
2016-Aug-16 00:33N 46°28' W 001°48'1 1.5
2016-Aug-15 23:33N 46°30' W 001°47'1 0.6
2016-Aug-15 22:33N 46°29' W 001°47'9 9.4
2016-Aug-15 21:34N 46°20' W 001°45'5 4.7
2016-Aug-15 20:33N 46°15' W 001°43'4 3.6
2016-Aug-15 19:33N 46°12' W 001°42'  
Track history (hours):
 
Tides and Currents Weather Stations Pressure Air Temp Water Temp Dewpoint Dewpoint Depression Visibility Wind Speed Wind Dir Waves Ship Positions

F/v_l'omerta

Last reported at 2016-Aug-25 12:33 UTC. Time now 2016-Aug-25 13:13 UTC.
Position N 46°17' W 002°21'.

Length 18 m.

Type: Fishing. MMSI: 227903000.

Date/timePositionNaut miles runAvg speedWind from/ knotsBaromVisibWave heightAir tempDewpointWater temp
2016-Aug-25 12:33N 46°17' W 002°21'3 3.3
2016-Aug-25 11:33N 46°18' W 002°16'3 2.1
2016-Aug-25 10:14N 46°15' W 002°13'2 1.1
2016-Aug-25 08:33N 46°17' W 002°15'2 1.5
2016-Aug-25 07:22N 46°15' W 002°15'2 2.6
2016-Aug-25 06:32N 46°17' W 002°14'4 1.8
2016-Aug-25 04:33N 46°15' W 002°19'3 2.7
2016-Aug-25 03:29N 46°18' W 002°21'7 7.3
2016-Aug-25 02:28N 46°21' W 002°11'8 9.0
2016-Aug-25 01:33N 46°24' W 002°00'9 9.0
2016-Aug-25 00:33N 46°28' W 001°48'2 0.1
2016-Aug-24 09:33N 46°30' W 001°47'0 0.0
2016-Aug-24 08:33N 46°30' W 001°47'0 0.0
2016-Aug-24 07:33N 46°30' W 001°47'0 0.0
2016-Aug-24 06:33N 46°30' W 001°47'0 0.0
2016-Aug-23 16:21N 46°30' W 001°47'0 0.1
2016-Aug-23 15:34N 46°30' W 001°47'1 1.2
2016-Aug-23 14:34N 46°29' W 001°47'2 2.0
2016-Aug-23 13:33N 46°28' W 001°50'4 4.2
2016-Aug-23 12:34N 46°26' W 001°55'5 4.8
2016-Aug-23 11:34N 46°24' W 002°01'6 6.1
2016-Aug-23 10:34N 46°20' W 002°08'7 7.3
2016-Aug-23 09:34N 46°17' W 002°18'2 1.9
2016-Aug-23 08:33N 46°16' W 002°16'2 1.7
2016-Aug-23 07:34N 46°15' W 002°18'6 1.4
2016-Aug-23 03:06N 46°14' W 002°10'2 3.0
2016-Aug-23 02:33N 46°15' W 002°08'2 2.2
2016-Aug-23 01:34N 46°17' W 002°06'3 3.1
2016-Aug-23 00:34N 46°18' W 002°02'4 3.5
2016-Aug-22 23:33N 46°20' W 001°57'3 2.8
2016-Aug-22 22:33N 46°18' W 001°54'2 2.3
2016-Aug-22 21:33N 46°16' W 001°52'3 3.1
2016-Aug-22 20:33N 46°19' W 001°55'3 2.6
2016-Aug-22 19:34N 46°19' W 001°58'4 3.5
2016-Aug-22 18:22N 46°18' W 002°04'4 3.3
2016-Aug-22 17:08N 46°16' W 002°09'2 3.4
2016-Aug-22 16:34N 46°15' W 002°12'3 2.0
2016-Aug-22 15:07N 46°16' W 002°16'2 1.1
2016-Aug-22 13:28N 46°14' W 002°14'2 2.1
2016-Aug-22 12:33N 46°16' W 002°16'2 1.8
2016-Aug-22 11:31N 46°16' W 002°13'4 1.9
2016-Aug-22 09:34N 46°15' W 002°19'1 0.6
2016-Aug-22 07:30N 46°14' W 002°17'4 3.6
2016-Aug-22 06:32N 46°17' W 002°21'7 7.6
2016-Aug-22 05:34N 46°21' W 002°11'9 8.9
2016-Aug-22 04:34N 46°24' W 001°60'9 8.7
2016-Aug-22 03:34N 46°28' W 001°48'2 0.0
2016-Aug-20 13:27N 46°30' W 001°47'0 0.0
2016-Aug-20 12:34N 46°30' W 001°47'0 0.0
2016-Aug-20 11:34N 46°30' W 001°47'0 0.0
2016-Aug-19 10:33N 46°30' W 001°47'0 0.0
2016-Aug-19 09:33N 46°30' W 001°47'0 0.0
2016-Aug-19 08:33N 46°30' W 001°47'0 0.1
2016-Aug-19 07:33N 46°30' W 001°47'0 0.1
2016-Aug-19 06:33N 46°30' W 001°47'0 0.0
2016-Aug-18 20:03N 46°30' W 001°47'0 0.0
2016-Aug-18 19:33N 46°30' W 001°47'1 0.8
2016-Aug-18 18:33N 46°29' W 001°47'6 5.6
2016-Aug-18 17:33N 46°26' W 001°54'2 2.1
2016-Aug-18 16:33N 46°23' W 001°54'3 2.8
2016-Aug-18 15:32N 46°21' W 001°54'4 3.7
2016-Aug-18 14:20N 46°19' W 002°00'19 1.3
2016-Aug-17 23:31N 46°33' W 002°19'17 2.0
2016-Aug-17 15:25N 46°40' W 002°41'3 3.4
2016-Aug-17 14:30N 46°39' W 002°46'3 0.5
2016-Aug-17 08:16N 46°43' W 002°46'3 3.4
2016-Aug-17 07:32N 46°44' W 002°43'2 2.3
2016-Aug-17 06:33N 46°42' W 002°41'2 1.1
2016-Aug-17 04:30N 46°44' W 002°43'2 2.5
2016-Aug-17 03:33N 46°42' W 002°41'3 2.9
2016-Aug-17 02:33N 46°43' W 002°45'2 2.2
2016-Aug-17 01:33N 46°44' W 002°43'3 2.8
2016-Aug-17 00:33N 46°42' W 002°41'1 1.3
2016-Aug-16 23:31N 46°41' W 002°43'3 3.0
2016-Aug-16 22:33N 46°44' W 002°43'3 2.7
2016-Aug-16 21:33N 46°42' W 002°41'3 3.2
2016-Aug-16 20:32N 46°39' W 002°39'3 3.0
2016-Aug-16 19:33N 46°41' W 002°42'3 3.1
2016-Aug-16 18:32N 46°44' W 002°41'4 3.1
2016-Aug-16 17:23N 46°43' W 002°46'3 0.4
2016-Aug-16 09:06N 46°40' W 002°49'1 2.6
2016-Aug-16 08:33N 46°40' W 002°51'2 2.2
2016-Aug-16 07:33N 46°42' W 002°52'20 4.8
2016-Aug-16 03:28N 46°38' W 002°24'8 9.0
2016-Aug-16 02:33N 46°35' W 002°13'9 9.2
2016-Aug-16 01:34N 46°32' W 002°01'9 9.2
2016-Aug-16 00:33N 46°28' W 001°48'1 1.5
2016-Aug-15 23:33N 46°30' W 001°47'1 0.6
2016-Aug-15 22:33N 46°29' W 001°47'9 9.4
2016-Aug-15 21:34N 46°20' W 001°45'5 4.7
2016-Aug-15 20:33N 46°15' W 001°43'4 3.6
2016-Aug-15 19:33N 46°12' W 001°42'  

Dump ship's entire track history